createdAt,value
2019-05-12T00:02:48.473Z,74.37
2019-05-12T00:07:50.075Z,74.45
2019-05-12T00:12:51.787Z,74.52
2019-05-12T00:17:53.367Z,74.49
2019-05-12T00:22:58.216Z,74.45
2019-05-12T00:27:59.871Z,73.96
2019-05-12T00:33:01.788Z,73.91
2019-05-12T00:38:03.483Z,73.86
2019-05-12T00:43:05.070Z,73.82
2019-05-12T00:48:09.156Z,73.79
2019-05-12T00:53:10.531Z,73.75
2019-05-12T00:58:12.112Z,73.76
2019-05-12T01:03:13.793Z,73.80
2019-05-12T01:08:15.373Z,73.68
2019-05-12T01:13:18.712Z,73.73
2019-05-12T01:18:20.571Z,73.87
2019-05-12T01:23:23.514Z,73.78
2019-05-12T01:28:27.696Z,73.81
2019-05-12T01:33:29.026Z,74.06
2019-05-12T01:38:30.607Z,74.15
2019-05-12T01:43:32.287Z,74.02
2019-05-12T01:48:33.842Z,73.83
2019-05-12T01:53:37.640Z,73.88
2019-05-12T01:58:38.918Z,73.85
2019-05-12T02:03:40.480Z,73.84
2019-05-12T02:08:48.189Z,73.86
2019-05-12T02:13:49.770Z,73.39
2019-05-12T02:18:51.440Z,73.32
2019-05-12T02:23:53.108Z,73.36
2019-05-12T02:28:54.819Z,73.38
2019-05-12T02:33:56.370Z,73.38
2019-05-12T02:38:57.938Z,73.40
2019-05-12T02:43:59.491Z,73.42
2019-05-12T02:49:01.165Z,73.62
2019-05-12T02:54:05.475Z,73.44
2019-05-12T02:59:07.264Z,73.36
2019-05-12T03:04:10.808Z,73.13
2019-05-12T03:09:15.119Z,72.96
2019-05-12T03:14:16.148Z,72.91
2019-05-12T03:19:17.805Z,72.83
2019-05-12T03:24:19.412Z,72.81
2019-05-12T03:29:21.064Z,72.81
2019-05-12T03:34:28.733Z,72.91
2019-05-12T03:39:26.107Z,72.88
2019-05-12T03:44:27.675Z,72.83
2019-05-12T03:49:29.267Z,72.82
2019-05-12T03:54:30.950Z,72.80
2019-05-12T03:59:34.848Z,72.84
2019-05-12T04:04:36.108Z,72.82
2019-05-12T04:09:37.676Z,72.86
2019-05-12T04:14:39.218Z,72.88
2019-05-12T04:19:40.797Z,72.83
2019-05-12T04:24:44.528Z,72.82
2019-05-12T04:29:45.830Z,72.84
2019-05-12T04:34:47.432Z,72.81
2019-05-12T04:39:49.006Z,72.79
2019-05-12T04:44:50.588Z,72.74
2019-05-12T04:49:54.641Z,72.78
2019-05-12T04:54:55.650Z,72.65
2019-05-12T04:59:57.214Z,72.61
2019-05-12T05:04:58.792Z,72.53
2019-05-12T05:10:00.396Z,72.57
2019-05-12T05:15:02.079Z,72.62
2019-05-12T05:20:04.195Z,72.56
2019-05-12T05:25:05.805Z,72.57
2019-05-12T05:30:07.614Z,72.50
2019-05-12T05:35:09.498Z,72.50
2019-05-12T05:40:13.858Z,72.49
2019-05-12T05:45:19.582Z,72.51
2019-05-12T05:50:23.553Z,72.52
2019-05-12T05:55:23.371Z,72.48
2019-05-12T06:00:26.374Z,72.45
2019-05-12T06:05:30.795Z,72.45
2019-05-12T06:10:36.197Z,72.32
2019-05-12T06:15:40.449Z,72.38
2019-05-12T06:20:38.695Z,72.27
2019-05-12T06:25:49.454Z,72.24
2019-05-12T06:30:47.120Z,72.31
2019-05-12T06:35:47.280Z,72.43
2019-05-12T06:40:48.847Z,72.26
2019-05-12T06:45:50.409Z,72.30
2019-05-12T06:50:53.477Z,72.20
2019-05-12T06:55:55.135Z,72.10
2019-05-12T07:00:56.852Z,72.09
2019-05-12T07:05:58.457Z,72.19
2019-05-12T07:11:03.706Z,72.23
2019-05-12T07:16:19.100Z,72.20
2019-05-12T07:21:20.280Z,72.18
2019-05-12T07:26:23.539Z,72.04
2019-05-12T07:31:24.934Z,72.05
2019-05-12T07:36:26.760Z,72.05
2019-05-12T07:41:30.378Z,72.00
2019-05-12T07:46:34.051Z,72.03
2019-05-12T07:51:40.418Z,72.03
2019-05-12T07:56:41.044Z,71.88
2019-05-12T08:01:50.198Z,71.84
2019-05-12T08:06:47.073Z,71.67
2019-05-12T08:11:48.687Z,71.73
2019-05-12T08:16:50.248Z,71.68
2019-05-12T08:21:53.715Z,71.59
2019-05-12T08:27:01.498Z,71.60
2019-05-12T08:31:58.801Z,71.49
2019-05-12T08:37:00.344Z,71.40
2019-05-12T08:42:04.008Z,71.46
2019-05-12T08:47:05.830Z,71.48
2019-05-12T08:52:07.412Z,71.20
2019-05-12T08:57:09.013Z,70.95
2019-05-12T09:02:10.962Z,70.96
2019-05-12T09:07:13.824Z,71.00
2019-05-12T09:12:15.877Z,70.79
2019-05-12T09:17:17.443Z,71.04
2019-05-12T09:22:21.065Z,71.07
2019-05-12T09:27:24.133Z,70.76
2019-05-12T09:32:26.023Z,70.78
2019-05-12T09:37:31.000Z,70.70
2019-05-12T09:42:32.999Z,70.57
2019-05-12T09:47:34.590Z,70.58
2019-05-12T09:52:36.355Z,70.59
2019-05-12T09:57:40.902Z,70.45
2019-05-12T10:02:43.436Z,70.40
2019-05-12T10:07:45.129Z,70.29
2019-05-12T10:12:50.485Z,70.19
2019-05-12T10:17:50.190Z,69.84
2019-05-12T10:22:54.144Z,69.57
2019-05-12T10:27:55.383Z,69.38
2019-05-12T10:32:57.096Z,69.25
2019-05-12T10:38:00.088Z,69.04
2019-05-12T10:43:04.588Z,68.82
2019-05-12T10:48:05.777Z,68.50
2019-05-12T10:53:09.773Z,68.36
2019-05-12T10:58:11.009Z,68.06
2019-05-12T11:03:15.630Z,67.94
2019-05-12T11:08:17.585Z,67.60
2019-05-12T11:13:19.216Z,67.03
2019-05-12T11:18:26.236Z,66.66
2019-05-12T11:23:25.574Z,66.31
2019-05-12T11:28:27.215Z,65.97
2019-05-12T11:33:28.807Z,65.68
2019-05-12T11:38:30.576Z,65.42
2019-05-12T11:43:33.792Z,65.23
2019-05-12T11:48:40.240Z,65.33
2019-05-12T11:53:38.988Z,65.02
2019-05-12T11:58:41.380Z,64.56
2019-05-12T12:03:44.173Z,63.69
2019-05-12T12:08:45.726Z,62.64
2019-05-12T12:13:49.999Z,61.91
2019-05-12T12:19:02.282Z,61.24
2019-05-12T12:23:55.866Z,61.73
2019-05-12T12:28:57.432Z,61.16
2019-05-12T12:33:59.003Z,60.28
2019-05-12T12:39:00.574Z,59.63
2019-05-12T12:44:04.450Z,59.14
2019-05-12T12:49:10.259Z,58.43
2019-05-12T12:54:09.184Z,57.56
2019-05-12T12:59:12.652Z,56.75
2019-05-12T13:04:14.342Z,56.47
2019-05-12T13:09:24.237Z,56.33
2019-05-12T13:14:19.674Z,55.96
2019-05-12T13:19:21.348Z,55.89
2019-05-12T13:24:22.906Z,54.83
2019-05-12T13:29:28.335Z,55.67
2019-05-12T13:34:28.832Z,56.52
2019-05-12T13:39:33.558Z,56.15
2019-05-12T13:44:38.730Z,55.48
2019-05-12T13:49:42.679Z,55.04
2019-05-12T13:54:43.691Z,55.61
2019-05-12T13:59:45.425Z,54.99
2019-05-12T14:04:46.989Z,54.25
2019-05-12T14:09:50.057Z,53.84
2019-05-12T14:14:51.614Z,54.09
2019-05-12T14:19:53.371Z,53.39
2019-05-12T14:24:54.994Z,53.15
2019-05-12T14:30:00.281Z,52.13
2019-05-12T14:35:00.819Z,51.52
2019-05-12T14:40:04.502Z,51.18
2019-05-12T14:45:06.541Z,49.52
2019-05-12T14:50:08.231Z,47.61
2019-05-12T14:55:09.897Z,45.90
2019-05-12T15:00:17.558Z,45.04
2019-05-12T15:05:15.363Z,43.84
2019-05-12T15:10:17.035Z,44.61
2019-05-12T15:15:20.754Z,44.73
2019-05-12T15:20:24.069Z,43.43
2019-05-12T15:25:29.333Z,42.65
2019-05-12T15:30:29.286Z,42.09
2019-05-12T15:35:30.834Z,42.17
2019-05-12T15:40:32.422Z,41.59
2019-05-12T15:45:34.369Z,41.45
2019-05-12T15:50:36.069Z,42.66
2019-05-12T15:55:37.613Z,42.92
2019-05-12T16:00:39.163Z,41.72
2019-05-12T16:05:40.734Z,43.00
2019-05-12T16:10:43.045Z,42.24
2019-05-12T16:15:49.341Z,42.29
2019-05-12T16:20:48.051Z,44.69
2019-05-12T16:25:49.619Z,43.94
2019-05-12T16:30:53.492Z,44.82
2019-05-12T16:35:54.750Z,44.21
2019-05-12T16:40:58.122Z,43.68
2019-05-12T16:45:59.688Z,44.02
2019-05-12T16:51:03.318Z,43.77
2019-05-12T16:56:04.783Z,43.71
2019-05-12T17:01:06.481Z,43.31
2019-05-12T17:06:08.169Z,43.79
2019-05-12T17:11:24.291Z,44.27
2019-05-12T17:16:13.752Z,44.55
2019-05-12T17:21:15.458Z,44.65
2019-05-12T17:26:17.023Z,44.12
2019-05-12T17:31:18.594Z,43.11
2019-05-12T17:36:20.258Z,43.41
2019-05-12T17:41:23.617Z,42.80
2019-05-12T17:46:25.303Z,42.94
2019-05-12T17:51:30.919Z,43.23
2019-05-12T17:56:34.222Z,43.18
2019-05-12T18:01:35.587Z,43.14
2019-05-12T18:06:37.220Z,42.94
2019-05-12T18:11:38.792Z,42.61
2019-05-12T18:16:43.324Z,42.23
2019-05-12T18:21:45.078Z,42.08
2019-05-12T18:26:55.302Z,42.16
2019-05-12T18:31:52.773Z,42.33
2019-05-12T18:36:58.102Z,42.44
2019-05-12T18:41:57.355Z,42.75
2019-05-12T18:46:58.942Z,42.96
2019-05-12T18:52:00.544Z,43.00
2019-05-12T18:57:06.402Z,43.07
2019-05-12T19:02:05.786Z,43.14
2019-05-12T19:07:07.366Z,43.11
2019-05-12T19:12:17.843Z,43.08
2019-05-12T19:17:14.315Z,43.13
2019-05-12T19:22:15.893Z,43.12
2019-05-12T19:27:20.759Z,43.14
2019-05-12T19:32:21.095Z,43.13
2019-05-12T19:37:26.417Z,43.26
2019-05-12T19:42:26.200Z,43.07
2019-05-12T19:47:33.130Z,43.01
2019-05-12T19:52:31.247Z,42.91
2019-05-12T19:57:33.504Z,42.96
2019-05-12T20:02:35.391Z,43.04
2019-05-12T20:07:36.961Z,42.99
2019-05-12T20:12:38.595Z,43.15
2019-05-12T20:17:40.171Z,43.08
2019-05-12T20:22:43.934Z,43.11
2019-05-12T20:27:45.279Z,43.16
2019-05-12T20:32:46.842Z,42.99
2019-05-12T20:37:52.990Z,43.07
2019-05-12T20:43:07.288Z,43.33
2019-05-12T20:47:55.518Z,43.37
2019-05-12T20:52:58.944Z,43.39
2019-05-12T20:58:00.610Z,43.41
2019-05-12T21:03:04.236Z,43.42
2019-05-12T21:08:11.725Z,43.50
2019-05-12T21:13:09.163Z,43.62
2019-05-12T21:18:10.710Z,43.78
2019-05-12T21:23:13.529Z,43.90
2019-05-12T21:28:15.367Z,43.95
2019-05-12T21:33:17.146Z,44.09
2019-05-12T21:38:24.112Z,44.16
2019-05-12T21:43:22.186Z,44.29
2019-05-12T21:48:26.529Z,44.40
2019-05-12T21:53:27.263Z,44.54
2019-05-12T21:58:28.946Z,44.69
2019-05-12T22:03:30.580Z,44.76
2019-05-12T22:08:33.805Z,44.75
2019-05-12T22:13:35.740Z,44.73
2019-05-12T22:18:37.415Z,44.81
2019-05-12T22:23:42.678Z,45.07
2019-05-12T22:28:46.636Z,44.91
2019-05-12T22:33:51.526Z,44.96
2019-05-12T22:38:54.313Z,44.91
2019-05-12T22:43:53.828Z,45.02
2019-05-12T22:48:55.573Z,45.20
2019-05-12T22:54:00.478Z,45.34
2019-05-12T22:59:01.569Z,45.18
2019-05-12T23:04:03.900Z,44.97
2019-05-12T23:09:06.242Z,45.25
2019-05-12T23:14:12.617Z,45.18
2019-05-12T23:19:12.280Z,45.33
2019-05-12T23:24:14.786Z,45.59
2019-05-12T23:29:20.392Z,45.40
2019-05-12T23:34:19.803Z,45.27
2019-05-12T23:39:23.437Z,45.17
2019-05-12T23:44:24.931Z,45.28
2019-05-12T23:49:26.510Z,45.39
2019-05-12T23:54:28.177Z,45.56
2019-05-12T23:59:29.727Z,45.69
